Terminal Aerodrome Forecast
Issued by NWS

Home | Current Version | Previous Version | Text Only | Print | Product List | Glossary On
Versions: 1 2 3 4 5 6 7 8 9 10 11 12 13 14
000
FTUS46 KMFR 050550
TAFLMT
TAF
KLMT 050550Z 0506/0606 VRB03KT P6SM -SHRA BKN060 BKN120
     FM052000 27008KT P6SM -SHRA VCTS BKN050CB OVC100
     FM060400 31008KT P6SM -SHRA BKN030 OVC060=

USA.gov is the U.S. government's official web portal to all federal, state and local government web resources and services.